createdAt,value
2022-10-16T00:01:28.784Z,959.33
2022-10-16T00:07:00.672Z,959.35
2022-10-16T00:12:32.286Z,959.35
2022-10-16T00:18:04.100Z,959.35
2022-10-16T00:20:15.870Z,959.31
2022-10-16T00:25:47.646Z,959.31
2022-10-16T00:31:19.618Z,959.31
2022-10-16T00:36:51.297Z,959.29
2022-10-16T00:42:23.252Z,959.31
2022-10-16T00:47:54.514Z,959.35
2022-10-16T00:53:26.218Z,959.45
2022-10-16T00:58:58.005Z,959.49
2022-10-16T01:04:29.816Z,959.55
2022-10-16T01:10:01.671Z,959.59
2022-10-16T01:15:33.314Z,959.61
2022-10-16T01:21:05.116Z,959.61
2022-10-16T01:26:36.903Z,959.63
2022-10-16T01:34:21.177Z,959.59
2022-10-16T01:39:52.627Z,959.59
2022-10-16T01:45:23.974Z,959.59
2022-10-16T01:50:55.689Z,959.59
2022-10-16T01:56:27.497Z,959.59
2022-10-16T02:01:59.179Z,959.55
2022-10-16T02:07:30.893Z,959.51
2022-10-16T02:13:02.416Z,959.49
2022-10-16T02:18:34.139Z,959.47
2022-10-16T02:24:05.900Z,959.47
2022-10-16T02:29:37.475Z,959.49
2022-10-16T02:35:09.434Z,959.53
2022-10-16T02:40:41.018Z,959.57
2022-10-16T02:46:12.981Z,959.61
2022-10-16T02:51:44.522Z,959.65
2022-10-16T02:57:16.263Z,959.67
2022-10-16T03:02:48.015Z,959.65
2022-10-16T03:08:19.981Z,959.65
2022-10-16T03:13:51.675Z,959.63
2022-10-16T03:19:23.513Z,959.63
2022-10-16T03:24:55.239Z,959.65
2022-10-16T03:30:26.778Z,959.67
2022-10-16T03:35:58.528Z,959.67
2022-10-16T03:41:29.804Z,959.69
2022-10-16T03:47:01.100Z,959.74
2022-10-16T03:52:32.970Z,959.80
2022-10-16T03:58:04.683Z,959.84
2022-10-16T04:03:36.514Z,959.84
2022-10-16T04:09:08.334Z,959.84
2022-10-16T04:14:39.946Z,959.84
2022-10-16T04:20:11.617Z,959.86
2022-10-16T04:25:43.394Z,959.82
2022-10-16T04:31:15.315Z,959.80
2022-10-16T04:36:47.593Z,959.80
2022-10-16T04:42:19.250Z,959.86
2022-10-16T04:47:50.990Z,959.90
2022-10-16T04:53:22.613Z,959.90
2022-10-16T04:58:54.123Z,959.90
2022-10-16T05:04:25.718Z,959.86
2022-10-16T05:09:57.425Z,959.86
2022-10-16T05:15:28.804Z,959.90
2022-10-16T05:21:00.506Z,959.92
2022-10-16T05:26:32.235Z,959.92
2022-10-16T05:32:03.691Z,959.98
2022-10-16T05:37:35.581Z,960.02
2022-10-16T05:43:07.110Z,960.06
2022-10-16T05:48:38.947Z,960.10
2022-10-16T05:54:10.552Z,960.14
2022-10-16T05:59:41.890Z,960.16
2022-10-16T06:05:13.477Z,960.18
2022-10-16T06:10:45.028Z,960.20
2022-10-16T06:16:16.786Z,960.27
2022-10-16T06:21:48.434Z,960.35
2022-10-16T06:27:20.407Z,960.41
2022-10-16T06:32:52.232Z,960.45
2022-10-16T06:38:24.011Z,960.49
2022-10-16T06:43:58.021Z,960.53
2022-10-16T06:49:29.567Z,960.57
2022-10-16T06:55:01.413Z,960.63
2022-10-16T07:00:33.037Z,960.68
2022-10-16T07:06:04.805Z,960.78
2022-10-16T07:11:36.541Z,960.84
2022-10-16T07:17:08.295Z,960.86
2022-10-16T07:22:40.098Z,960.90
2022-10-16T07:28:11.831Z,960.98
2022-10-16T07:33:43.608Z,961.06
2022-10-16T07:39:15.333Z,961.10
2022-10-16T07:44:47.082Z,961.15
2022-10-16T07:50:18.896Z,961.23
2022-10-16T07:55:50.538Z,961.25
2022-10-16T08:01:22.108Z,961.27
2022-10-16T08:06:53.478Z,961.33
2022-10-16T08:12:25.240Z,961.35
2022-10-16T08:17:57.158Z,961.37
2022-10-16T08:23:28.939Z,961.37
2022-10-16T08:29:00.989Z,961.43
2022-10-16T08:34:32.966Z,961.47
2022-10-16T08:45:34.652Z,961.57
2022-10-16T08:51:06.698Z,961.61
2022-10-16T08:56:38.703Z,961.71
2022-10-16T09:02:10.962Z,961.73
2022-10-16T09:07:43.395Z,961.75
2022-10-16T09:13:15.398Z,961.71
2022-10-16T09:18:47.214Z,961.71
2022-10-16T09:24:19.109Z,961.73
2022-10-16T09:29:51.977Z,961.71
2022-10-16T09:35:23.673Z,961.75
2022-10-16T09:40:59.254Z,961.78
2022-10-16T09:46:27.339Z,961.84
2022-10-16T09:51:59.486Z,961.88
2022-10-16T09:57:31.487Z,961.92
2022-10-16T10:08:33.066Z,961.92
2022-10-16T10:14:04.758Z,961.92
2022-10-16T10:19:36.356Z,961.92
2022-10-16T10:27:28.364Z,961.98
2022-10-16T10:33:00.219Z,961.96
2022-10-16T10:38:32.014Z,961.96
2022-10-16T10:44:03.987Z,961.96
2022-10-16T10:49:35.864Z,961.96
2022-10-16T10:55:07.603Z,961.94
2022-10-16T11:00:39.569Z,961.92
2022-10-16T11:06:11.212Z,961.92
2022-10-16T11:11:43.034Z,961.92
2022-10-16T11:17:14.969Z,961.90
2022-10-16T11:22:47.116Z,961.94
2022-10-16T11:28:18.807Z,961.92
2022-10-16T11:33:50.629Z,961.92
2022-10-16T11:39:22.205Z,961.86
2022-10-16T11:44:54.109Z,961.86
2022-10-16T11:50:25.774Z,961.86
2022-10-16T11:55:57.575Z,961.84
2022-10-16T12:01:29.357Z,961.84
2022-10-16T12:07:01.282Z,961.80
2022-10-16T12:12:39.821Z,961.84
2022-10-16T12:18:11.453Z,961.80
2022-10-16T12:23:49.272Z,961.80
2022-10-16T12:29:21.054Z,961.76
2022-10-16T12:34:52.524Z,961.73
2022-10-16T12:40:24.495Z,961.75
2022-10-16T12:45:56.611Z,961.71
2022-10-16T12:51:28.591Z,961.61
2022-10-16T12:57:00.319Z,961.57
2022-10-16T13:02:31.635Z,961.59
2022-10-16T13:08:03.842Z,961.57
2022-10-16T13:13:36.011Z,961.57
2022-10-16T13:19:10.939Z,961.55
2022-10-16T13:24:42.693Z,961.59
2022-10-16T13:30:14.980Z,961.61
2022-10-16T13:35:46.853Z,961.71
2022-10-16T13:41:24.408Z,961.69
2022-10-16T13:46:56.494Z,961.71
2022-10-16T13:52:30.608Z,961.78
2022-10-16T13:58:03.859Z,961.82
2022-10-16T14:03:35.855Z,961.84
2022-10-16T14:09:07.628Z,961.84
2022-10-16T14:14:39.500Z,961.86
2022-10-16T14:20:11.560Z,961.86
2022-10-16T14:25:43.309Z,961.86
2022-10-16T14:31:17.369Z,961.88
2022-10-16T14:36:49.506Z,961.86
2022-10-16T14:42:21.787Z,961.86
2022-10-16T14:47:53.846Z,961.86
2022-10-16T14:53:25.590Z,961.90
2022-10-16T14:58:57.595Z,961.90
2022-10-16T15:04:29.658Z,961.94
2022-10-16T15:10:01.422Z,961.96
2022-10-16T15:15:33.201Z,962.02
2022-10-16T15:21:05.370Z,962.04
2022-10-16T15:26:36.980Z,962.06
2022-10-16T15:32:09.092Z,962.10
2022-10-16T15:37:41.472Z,962.10
2022-10-16T15:43:13.283Z,962.12
2022-10-16T15:48:44.961Z,962.18
2022-10-16T15:54:16.558Z,962.18
2022-10-16T15:59:48.691Z,962.25
2022-10-16T16:05:20.614Z,962.25
2022-10-16T16:10:53.688Z,962.31
2022-10-16T16:16:25.569Z,962.31
2022-10-16T16:21:58.675Z,962.33
2022-10-16T16:27:33.354Z,962.37
2022-10-16T16:33:05.478Z,962.41
2022-10-16T16:38:37.289Z,962.41
2022-10-16T16:44:09.153Z,962.49
2022-10-16T16:49:42.325Z,962.53
2022-10-16T16:55:14.343Z,962.59
2022-10-16T17:00:56.424Z,962.63
2022-10-16T17:06:20.670Z,962.69
2022-10-16T17:11:50.065Z,962.80
2022-10-16T17:17:22.316Z,962.86
2022-10-16T17:22:54.421Z,962.90
2022-10-16T17:28:26.364Z,962.96
2022-10-16T17:33:59.614Z,963.04
2022-10-16T17:39:31.784Z,963.08
2022-10-16T17:45:03.615Z,963.14
2022-10-16T17:50:35.105Z,963.18
2022-10-16T17:56:09.310Z,963.27
2022-10-16T18:01:41.185Z,963.31
2022-10-16T18:12:44.954Z,963.45
2022-10-16T18:18:17.036Z,963.51
2022-10-16T18:23:51.714Z,963.55
2022-10-16T18:29:20.731Z,963.61
2022-10-16T18:34:53.031Z,963.65
2022-10-16T18:40:25.171Z,963.69
2022-10-16T18:45:56.860Z,963.72
2022-10-16T18:51:28.338Z,963.72
2022-10-16T18:57:00.142Z,963.74
2022-10-16T19:02:32.079Z,963.76
2022-10-16T19:08:04.413Z,963.82
2022-10-16T19:13:36.193Z,963.86
2022-10-16T19:19:08.037Z,963.90
2022-10-16T19:24:40.035Z,963.96
2022-10-16T19:38:04.463Z,964.14
2022-10-16T19:43:36.363Z,964.16
2022-10-16T19:49:07.951Z,964.26
2022-10-16T19:54:39.535Z,964.18
2022-10-16T20:00:12.821Z,964.26
2022-10-16T20:05:44.637Z,964.35
2022-10-16T20:11:16.582Z,964.37
2022-10-16T20:16:48.383Z,964.43
2022-10-16T20:22:20.415Z,964.47
2022-10-16T20:27:52.094Z,964.49
2022-10-16T20:33:23.968Z,964.57
2022-10-16T20:38:55.876Z,964.61
2022-10-16T20:44:27.891Z,964.69
2022-10-16T20:49:59.354Z,964.71
2022-10-16T20:55:31.133Z,964.75
2022-10-16T21:01:02.997Z,964.81
2022-10-16T21:06:34.905Z,964.85
2022-10-16T21:12:06.529Z,964.85
2022-10-16T21:17:38.332Z,964.87
2022-10-16T21:23:10.046Z,964.87
2022-10-16T21:28:41.849Z,964.90
2022-10-16T21:34:13.783Z,964.90
2022-10-16T21:45:17.417Z,964.90
2022-10-16T21:50:49.122Z,964.90
2022-10-16T21:56:20.991Z,964.90
2022-10-16T22:01:52.781Z,964.87
2022-10-16T22:07:24.702Z,964.88
2022-10-16T22:12:56.122Z,964.87
2022-10-16T22:18:28.147Z,964.88
2022-10-16T22:23:59.789Z,964.88
2022-10-16T22:29:31.610Z,964.88
2022-10-16T22:35:03.738Z,964.92
2022-10-16T22:40:36.026Z,964.90
2022-10-16T22:46:08.320Z,964.94
2022-10-16T22:51:40.393Z,964.94
2022-10-16T22:57:12.361Z,964.98
2022-10-16T23:02:44.730Z,964.98
2022-10-16T23:08:16.932Z,964.98
2022-10-16T23:13:49.021Z,964.98
2022-10-16T23:19:20.775Z,965.00
2022-10-16T23:24:52.552Z,965.04
2022-10-16T23:30:24.221Z,965.04
2022-10-16T23:35:56.217Z,965.10
2022-10-16T23:41:27.985Z,965.10
2022-10-16T23:47:00.094Z,965.16
2022-10-16T23:52:33.906Z,965.20
2022-10-16T23:58:05.819Z,965.18
